Estación Meteorológica Peña el Pijo (Robertgarden) [ 02/03/23 03:25:31 CET ]

Fecha Hora Presion(HPa) Temp (°C) Humedad % Rocio (°C) Viento ( m/s) Direccion Lluvia 1Hora(mm) Lluvia 24H(mm) LLuvia Total(mm)
2012-Feb-07 01:01:14 1013.800 7.2 64 0.8         153.32
2012-Feb-07 02:01:47 1013.300 7.1 62 0.3 1.5 SSW     153.32
2012-Feb-07 03:07:05 1013.300 6.9 61 -0.1         153.32
2012-Feb-07 04:01:16 1013.300 6.3 63 -0.2         153.32
2012-Feb-07 05:01:14 1013.200 6.1 62 -0.7         153.32
2012-Feb-07 06:01:12 1012.700 5.5 61 -1.4         153.32
2012-Feb-07 07:01:11 1011.800 5.8 58 -1.9         153.32
2012-Feb-07 08:01:12 1011.300 5.8 60 -1.4         153.32
2012-Feb-07 09:01:23 1011.800 4.9 70 -0.1         153.32
2012-Feb-07 10:01:16 1011.800 4.5 77 0.8         153.32
2012-Feb-07 11:01:19 1011.500 5.6 77 1.9         153.32
2012-Feb-07 12:01:17 1011.400 6.1 72 1.4         153.32
2012-Feb-07 13:01:14 1010.900 5.1 76 1.2         153.32
2012-Feb-07 14:01:16 1009.800 4.4 82 1.6         153.32
2012-Feb-07 15:01:12 1009.700 3.0 80 -0.1         153.32
2012-Feb-07 16:01:17 1009.900 1.6 80 -1.5         153.32
2012-Feb-07 17:01:14 1009.300 1.6 80 -1.5         153.32
2012-Feb-07 18:01:13 1008.400 1.9 69 -3.2 2.3 SSE     153.32
2012-Feb-07 19:01:12 1009.500 1.1 62 -5.4         153.32
2012-Feb-07 20:01:12 1009.500 0.5 64 -5.5         153.32
2012-Feb-07 21:01:14 1009.900 0.6 61 -6.1         153.32
2012-Feb-07 22:01:14 1009.600 0.3 58 -7.0         153.32
2012-Feb-07 23:01:12 1009.100 -0.4 55 -8.4         153.32

Temperatura Máxima:    Temperatura Mínima:
Presión Máxima:1013.800 Hpa    Presión Mínima:1008.400 Hpa


Volver